sensor_id;sensor_type;location;lat;lon;timestamp;P1;durP1;ratioP1;P2;durP2;ratioP2
10851;SDS011;5479;52.046;6.314;2023-08-06T00:00:26;19.10;;;15.70;;
10851;SDS011;5479;52.046;6.314;2023-08-06T00:02:57;19.13;;;15.77;;
10851;SDS011;5479;52.046;6.314;2023-08-06T00:05:26;20.40;;;16.30;;
10851;SDS011;5479;52.046;6.314;2023-08-06T00:07:56;19.27;;;16.27;;
10851;SDS011;5479;52.046;6.314;2023-08-06T00:10:24;22.90;;;16.97;;
10851;SDS011;5479;52.046;6.314;2023-08-06T00:12:52;20.97;;;17.13;;
10851;SDS011;5479;52.046;6.314;2023-08-06T00:15:20;22.60;;;17.53;;
10851;SDS011;5479;52.046;6.314;2023-08-06T00:17:49;19.03;;;17.03;;
10851;SDS011;5479;52.046;6.314;2023-08-06T00:20:18;19.90;;;17.63;;
10851;SDS011;5479;52.046;6.314;2023-08-06T00:22:46;19.63;;;17.53;;
10851;SDS011;5479;52.046;6.314;2023-08-06T00:25:16;20.83;;;18.10;;
10851;SDS011;5479;52.046;6.314;2023-08-06T00:27:44;19.50;;;17.40;;
10851;SDS011;5479;52.046;6.314;2023-08-06T00:30:13;19.93;;;17.47;;
10851;SDS011;5479;52.046;6.314;2023-08-06T00:32:41;22.00;;;17.30;;
10851;SDS011;5479;52.046;6.314;2023-08-06T00:35:09;21.40;;;17.53;;
10851;SDS011;5479;52.046;6.314;2023-08-06T00:37:39;19.03;;;16.80;;
10851;SDS011;5479;52.046;6.314;2023-08-06T00:40:08;19.93;;;17.40;;
10851;SDS011;5479;52.046;6.314;2023-08-06T00:42:37;20.40;;;16.23;;
10851;SDS011;5479;52.046;6.314;2023-08-06T00:45:06;20.70;;;16.77;;
10851;SDS011;5479;52.046;6.314;2023-08-06T00:47:34;19.57;;;17.03;;
10851;SDS011;5479;52.046;6.314;2023-08-06T00:50:03;20.20;;;17.13;;
10851;SDS011;5479;52.046;6.314;2023-08-06T00:52:31;20.33;;;17.10;;
10851;SDS011;5479;52.046;6.314;2023-08-06T00:54:59;19.40;;;17.07;;
10851;SDS011;5479;52.046;6.314;2023-08-06T00:57:27;20.10;;;17.00;;
10851;SDS011;5479;52.046;6.314;2023-08-06T00:59:57;19.33;;;17.03;;
10851;SDS011;5479;52.046;6.314;2023-08-06T01:02:25;20.10;;;17.33;;
10851;SDS011;5479;52.046;6.314;2023-08-06T01:04:53;20.00;;;17.10;;
10851;SDS011;5479;52.046;6.314;2023-08-06T01:07:27;19.83;;;17.07;;
10851;SDS011;5479;52.046;6.314;2023-08-06T01:10:11;20.03;;;17.87;;
10851;SDS011;5479;52.046;6.314;2023-08-06T01:12:59;20.57;;;17.40;;
10851;SDS011;5479;52.046;6.314;2023-08-06T01:15:38;20.83;;;17.37;;
10851;SDS011;5479;52.046;6.314;2023-08-06T01:18:11;20.93;;;17.80;;
10851;SDS011;5479;52.046;6.314;2023-08-06T01:20:40;21.07;;;17.53;;
10851;SDS011;5479;52.046;6.314;2023-08-06T01:23:09;19.50;;;17.40;;
10851;SDS011;5479;52.046;6.314;2023-08-06T01:25:40;20.73;;;17.73;;
10851;SDS011;5479;52.046;6.314;2023-08-06T01:28:18;19.80;;;17.70;;
10851;SDS011;5479;52.046;6.314;2023-08-06T01:30:53;20.03;;;17.93;;
10851;SDS011;5479;52.046;6.314;2023-08-06T01:33:26;22.40;;;17.80;;
10851;SDS011;5479;52.046;6.314;2023-08-06T01:35:58;20.43;;;17.70;;
10851;SDS011;5479;52.046;6.314;2023-08-06T01:38:27;21.47;;;17.93;;
10851;SDS011;5479;52.046;6.314;2023-08-06T01:40:55;22.47;;;18.40;;
10851;SDS011;5479;52.046;6.314;2023-08-06T01:43:23;21.73;;;17.97;;
10851;SDS011;5479;52.046;6.314;2023-08-06T01:45:51;22.40;;;18.03;;
10851;SDS011;5479;52.046;6.314;2023-08-06T01:48:20;23.07;;;20.53;;
10851;SDS011;5479;52.046;6.314;2023-08-06T01:50:51;21.93;;;18.60;;
10851;SDS011;5479;52.046;6.314;2023-08-06T01:53:21;22.90;;;18.63;;
10851;SDS011;5479;52.046;6.314;2023-08-06T01:55:49;21.17;;;18.80;;
10851;SDS011;5479;52.046;6.314;2023-08-06T01:58:17;24.77;;;19.37;;
10851;SDS011;5479;52.046;6.314;2023-08-06T02:00:45;23.40;;;18.77;;
10851;SDS011;5479;52.046;6.314;2023-08-06T02:03:13;22.53;;;19.27;;
10851;SDS011;5479;52.046;6.314;2023-08-06T02:05:40;22.53;;;19.73;;
10851;SDS011;5479;52.046;6.314;2023-08-06T02:08:09;24.23;;;20.30;;
10851;SDS011;5479;52.046;6.314;2023-08-06T02:10:38;26.43;;;19.90;;
10851;SDS011;5479;52.046;6.314;2023-08-06T02:13:06;22.77;;;19.70;;
10851;SDS011;5479;52.046;6.314;2023-08-06T02:15:34;23.07;;;19.27;;
10851;SDS011;5479;52.046;6.314;2023-08-06T02:18:03;25.10;;;19.90;;
10851;SDS011;5479;52.046;6.314;2023-08-06T02:20:31;25.73;;;20.67;;
10851;SDS011;5479;52.046;6.314;2023-08-06T02:23:00;23.27;;;19.83;;
10851;SDS011;5479;52.046;6.314;2023-08-06T02:25:28;22.50;;;19.50;;
10851;SDS011;5479;52.046;6.314;2023-08-06T02:27:57;24.23;;;19.70;;
10851;SDS011;5479;52.046;6.314;2023-08-06T02:30:25;26.07;;;19.40;;
10851;SDS011;5479;52.046;6.314;2023-08-06T02:32:53;22.27;;;19.10;;
10851;SDS011;5479;52.046;6.314;2023-08-06T02:35:22;23.47;;;19.37;;
10851;SDS011;5479;52.046;6.314;2023-08-06T02:37:50;22.97;;;19.57;;
10851;SDS011;5479;52.046;6.314;2023-08-06T02:40:17;24.30;;;20.47;;
10851;SDS011;5479;52.046;6.314;2023-08-06T02:42:45;23.47;;;18.83;;
10851;SDS011;5479;52.046;6.314;2023-08-06T02:45:15;24.13;;;19.93;;
10851;SDS011;5479;52.046;6.314;2023-08-06T02:47:43;24.53;;;19.10;;
10851;SDS011;5479;52.046;6.314;2023-08-06T02:50:10;21.10;;;18.37;;
10851;SDS011;5479;52.046;6.314;2023-08-06T02:52:40;21.73;;;18.33;;
10851;SDS011;5479;52.046;6.314;2023-08-06T02:55:08;22.47;;;18.67;;
10851;SDS011;5479;52.046;6.314;2023-08-06T02:57:36;24.17;;;20.20;;
10851;SDS011;5479;52.046;6.314;2023-08-06T03:00:06;25.37;;;18.83;;
10851;SDS011;5479;52.046;6.314;2023-08-06T03:02:39;27.07;;;20.30;;
10851;SDS011;5479;52.046;6.314;2023-08-06T03:05:07;22.13;;;19.47;;
10851;SDS011;5479;52.046;6.314;2023-08-06T03:07:35;24.80;;;20.07;;
10851;SDS011;5479;52.046;6.314;2023-08-06T03:10:04;24.27;;;19.23;;
10851;SDS011;5479;52.046;6.314;2023-08-06T03:12:32;24.93;;;19.80;;
10851;SDS011;5479;52.046;6.314;2023-08-06T03:15:00;25.23;;;19.17;;
10851;SDS011;5479;52.046;6.314;2023-08-06T03:17:28;23.47;;;19.27;;
10851;SDS011;5479;52.046;6.314;2023-08-06T03:19:58;26.07;;;20.37;;
10851;SDS011;5479;52.046;6.314;2023-08-06T03:22:27;23.73;;;19.20;;
10851;SDS011;5479;52.046;6.314;2023-08-06T03:24:55;22.77;;;18.90;;
10851;SDS011;5479;52.046;6.314;2023-08-06T03:27:23;23.53;;;19.57;;
10851;SDS011;5479;52.046;6.314;2023-08-06T03:29:50;27.37;;;20.00;;
10851;SDS011;5479;52.046;6.314;2023-08-06T03:32:19;23.47;;;19.87;;
10851;SDS011;5479;52.046;6.314;2023-08-06T03:34:47;25.63;;;21.00;;
10851;SDS011;5479;52.046;6.314;2023-08-06T03:37:16;26.37;;;21.37;;
10851;SDS011;5479;52.046;6.314;2023-08-06T03:39:44;26.60;;;20.60;;
10851;SDS011;5479;52.046;6.314;2023-08-06T03:42:13;22.27;;;19.63;;
10851;SDS011;5479;52.046;6.314;2023-08-06T03:44:41;21.47;;;18.87;;
10851;SDS011;5479;52.046;6.314;2023-08-06T03:47:09;24.37;;;19.93;;
10851;SDS011;5479;52.046;6.314;2023-08-06T03:49:37;23.17;;;20.33;;
10851;SDS011;5479;52.046;6.314;2023-08-06T03:52:07;23.60;;;19.77;;
10851;SDS011;5479;52.046;6.314;2023-08-06T03:54:37;23.30;;;19.93;;
10851;SDS011;5479;52.046;6.314;2023-08-06T03:57:05;22.73;;;19.13;;
10851;SDS011;5479;52.046;6.314;2023-08-06T03:59:33;24.83;;;19.47;;
10851;SDS011;5479;52.046;6.314;2023-08-06T04:02:01;24.93;;;19.67;;
10851;SDS011;5479;52.046;6.314;2023-08-06T04:04:30;24.13;;;19.17;;
10851;SDS011;5479;52.046;6.314;2023-08-06T04:06:58;23.13;;;19.53;;
10851;SDS011;5479;52.046;6.314;2023-08-06T04:09:27;22.20;;;19.37;;
10851;SDS011;5479;52.046;6.314;2023-08-06T04:11:57;22.43;;;19.17;;
10851;SDS011;5479;52.046;6.314;2023-08-06T04:14:27;26.93;;;20.20;;
10851;SDS011;5479;52.046;6.314;2023-08-06T04:16:55;24.30;;;20.20;;
10851;SDS011;5479;52.046;6.314;2023-08-06T04:19:24;23.17;;;19.50;;
10851;SDS011;5479;52.046;6.314;2023-08-06T04:21:52;22.57;;;19.07;;
10851;SDS011;5479;52.046;6.314;2023-08-06T04:24:20;24.27;;;19.90;;
10851;SDS011;5479;52.046;6.314;2023-08-06T04:26:48;24.83;;;19.67;;
10851;SDS011;5479;52.046;6.314;2023-08-06T04:29:17;20.90;;;18.70;;
10851;SDS011;5479;52.046;6.314;2023-08-06T04:31:46;21.87;;;18.77;;
10851;SDS011;5479;52.046;6.314;2023-08-06T04:34:13;23.93;;;19.47;;
10851;SDS011;5479;52.046;6.314;2023-08-06T04:36:41;25.03;;;19.60;;
10851;SDS011;5479;52.046;6.314;2023-08-06T04:39:09;22.83;;;19.20;;
10851;SDS011;5479;52.046;6.314;2023-08-06T04:41:37;21.93;;;19.07;;
10851;SDS011;5479;52.046;6.314;2023-08-06T04:44:05;24.77;;;19.50;;
10851;SDS011;5479;52.046;6.314;2023-08-06T04:46:38;25.97;;;19.03;;
10851;SDS011;5479;52.046;6.314;2023-08-06T04:49:08;22.57;;;18.70;;
10851;SDS011;5479;52.046;6.314;2023-08-06T04:51:38;20.90;;;18.40;;
10851;SDS011;5479;52.046;6.314;2023-08-06T04:54:06;22.67;;;18.43;;
10851;SDS011;5479;52.046;6.314;2023-08-06T04:56:34;24.13;;;19.83;;
10851;SDS011;5479;52.046;6.314;2023-08-06T04:59:02;22.83;;;18.47;;
10851;SDS011;5479;52.046;6.314;2023-08-06T05:01:30;20.97;;;18.27;;
10851;SDS011;5479;52.046;6.314;2023-08-06T05:03:59;23.57;;;18.83;;
10851;SDS011;5479;52.046;6.314;2023-08-06T05:06:27;23.23;;;19.07;;
10851;SDS011;5479;52.046;6.314;2023-08-06T05:08:55;19.47;;;17.23;;
10851;SDS011;5479;52.046;6.314;2023-08-06T05:11:24;22.93;;;18.73;;
10851;SDS011;5479;52.046;6.314;2023-08-06T05:13:52;21.47;;;17.93;;
10851;SDS011;5479;52.046;6.314;2023-08-06T05:16:19;19.73;;;17.73;;
10851;SDS011;5479;52.046;6.314;2023-08-06T05:18:47;17.90;;;16.10;;
10851;SDS011;5479;52.046;6.314;2023-08-06T05:21:17;19.50;;;17.33;;
10851;SDS011;5479;52.046;6.314;2023-08-06T05:23:45;16.93;;;15.23;;
10851;SDS011;5479;52.046;6.314;2023-08-06T05:26:13;19.50;;;15.00;;
10851;SDS011;5479;52.046;6.314;2023-08-06T05:28:44;16.80;;;15.07;;
10851;SDS011;5479;52.046;6.314;2023-08-06T05:31:13;16.13;;;14.20;;
10851;SDS011;5479;52.046;6.314;2023-08-06T05:33:41;16.43;;;14.30;;
10851;SDS011;5479;52.046;6.314;2023-08-06T05:36:09;15.23;;;13.70;;
10851;SDS011;5479;52.046;6.314;2023-08-06T05:38:39;16.97;;;14.40;;
10851;SDS011;5479;52.046;6.314;2023-08-06T05:41:09;19.23;;;13.33;;
10851;SDS011;5479;52.046;6.314;2023-08-06T05:43:36;15.33;;;12.57;;
10851;SDS011;5479;52.046;6.314;2023-08-06T05:46:05;14.27;;;12.43;;
10851;SDS011;5479;52.046;6.314;2023-08-06T05:48:33;14.83;;;13.23;;
10851;SDS011;5479;52.046;6.314;2023-08-06T05:51:01;15.87;;;14.00;;
10851;SDS011;5479;52.046;6.314;2023-08-06T05:53:29;15.33;;;13.73;;
10851;SDS011;5479;52.046;6.314;2023-08-06T05:55:59;15.33;;;13.73;;
10851;SDS011;5479;52.046;6.314;2023-08-06T05:58:27;17.63;;;12.70;;
10851;SDS011;5479;52.046;6.314;2023-08-06T06:00:56;15.27;;;13.77;;
10851;SDS011;5479;52.046;6.314;2023-08-06T06:03:25;14.83;;;13.33;;
10851;SDS011;5479;52.046;6.314;2023-08-06T06:05:54;16.57;;;14.63;;
10851;SDS011;5479;52.046;6.314;2023-08-06T06:08:22;17.77;;;14.70;;
10851;SDS011;5479;52.046;6.314;2023-08-06T06:10:50;15.93;;;14.23;;
10851;SDS011;5479;52.046;6.314;2023-08-06T06:13:19;15.70;;;14.03;;
10851;SDS011;5479;52.046;6.314;2023-08-06T06:15:47;16.67;;;14.87;;
10851;SDS011;5479;52.046;6.314;2023-08-06T06:18:15;16.87;;;15.13;;
10851;SDS011;5479;52.046;6.314;2023-08-06T06:20:43;16.70;;;14.30;;
10851;SDS011;5479;52.046;6.314;2023-08-06T06:23:11;15.20;;;13.53;;
10851;SDS011;5479;52.046;6.314;2023-08-06T06:25:41;15.83;;;14.17;;
10851;SDS011;5479;52.046;6.314;2023-08-06T06:28:09;16.33;;;14.10;;
10851;SDS011;5479;52.046;6.314;2023-08-06T06:30:40;15.50;;;14.00;;
10851;SDS011;5479;52.046;6.314;2023-08-06T06:33:09;14.60;;;12.43;;
10851;SDS011;5479;52.046;6.314;2023-08-06T06:35:37;14.82;;;12.52;;
10851;SDS011;5479;52.046;6.314;2023-08-06T06:38:05;15.73;;;13.23;;
10851;SDS011;5479;52.046;6.314;2023-08-06T06:40:33;14.40;;;12.98;;
10851;SDS011;5479;52.046;6.314;2023-08-06T06:43:07;14.82;;;13.32;;
10851;SDS011;5479;52.046;6.314;2023-08-06T06:45:45;15.30;;;13.80;;
10851;SDS011;5479;52.046;6.314;2023-08-06T06:48:13;13.38;;;11.98;;
10851;SDS011;5479;52.046;6.314;2023-08-06T06:50:41;15.88;;;13.15;;
10851;SDS011;5479;52.046;6.314;2023-08-06T06:53:17;13.75;;;12.35;;
10851;SDS011;5479;52.046;6.314;2023-08-06T06:55:45;14.23;;;12.65;;
10851;SDS011;5479;52.046;6.314;2023-08-06T06:58:16;17.13;;;15.40;;
10851;SDS011;5479;52.046;6.314;2023-08-06T07:00:45;14.27;;;12.38;;
10851;SDS011;5479;52.046;6.314;2023-08-06T07:03:14;15.05;;;13.55;;
10851;SDS011;5479;52.046;6.314;2023-08-06T07:05:43;15.48;;;13.85;;
10851;SDS011;5479;52.046;6.314;2023-08-06T07:08:11;16.10;;;14.40;;
10851;SDS011;5479;52.046;6.314;2023-08-06T07:10:46;14.63;;;13.07;;
10851;SDS011;5479;52.046;6.314;2023-08-06T07:13:13;16.33;;;14.73;;
10851;SDS011;5479;52.046;6.314;2023-08-06T07:15:42;15.45;;;13.85;;
10851;SDS011;5479;52.046;6.314;2023-08-06T07:18:16;14.60;;;13.20;;
10851;SDS011;5479;52.046;6.314;2023-08-06T07:20:50;14.57;;;13.10;;
10851;SDS011;5479;52.046;6.314;2023-08-06T07:23:18;15.20;;;13.80;;
10851;SDS011;5479;52.046;6.314;2023-08-06T07:25:47;16.15;;;14.48;;
10851;SDS011;5479;52.046;6.314;2023-08-06T07:28:16;15.45;;;13.95;;
10851;SDS011;5479;52.046;6.314;2023-08-06T07:30:47;15.77;;;14.27;;
10851;SDS011;5479;52.046;6.314;2023-08-06T07:33:27;15.55;;;14.05;;
10851;SDS011;5479;52.046;6.314;2023-08-06T07:38:38;15.43;;;13.93;;
10851;SDS011;5479;52.046;6.314;2023-08-06T07:41:08;14.68;;;13.27;;
10851;SDS011;5479;52.046;6.314;2023-08-06T07:43:44;16.85;;;13.57;;
10851;SDS011;5479;52.046;6.314;2023-08-06T07:49:01;13.73;;;12.40;;
10851;SDS011;5479;52.046;6.314;2023-08-06T07:51:30;13.52;;;12.13;;
10851;SDS011;5479;52.046;6.314;2023-08-06T07:53:57;14.48;;;13.07;;
10851;SDS011;5479;52.046;6.314;2023-08-06T07:56:25;14.00;;;12.68;;
10851;SDS011;5479;52.046;6.314;2023-08-06T07:58:53;13.30;;;11.95;;
10851;SDS011;5479;52.046;6.314;2023-08-06T08:01:22;12.93;;;11.73;;
10851;SDS011;5479;52.046;6.314;2023-08-06T08:03:50;11.25;;;10.20;;
10851;SDS011;5479;52.046;6.314;2023-08-06T08:06:19;11.02;;;9.93;;
10851;SDS011;5479;52.046;6.314;2023-08-06T08:08:47;11.73;;;10.57;;
10851;SDS011;5479;52.046;6.314;2023-08-06T08:11:16;11.43;;;10.27;;
10851;SDS011;5479;52.046;6.314;2023-08-06T08:13:50;11.50;;;10.30;;
10851;SDS011;5479;52.046;6.314;2023-08-06T08:16:18;12.80;;;11.32;;
10851;SDS011;5479;52.046;6.314;2023-08-06T08:18:45;11.75;;;10.27;;
10851;SDS011;5479;52.046;6.314;2023-08-06T08:21:13;11.43;;;9.48;;
10851;SDS011;5479;52.046;6.314;2023-08-06T08:23:43;9.80;;;8.80;;
10851;SDS011;5479;52.046;6.314;2023-08-06T08:26:11;10.27;;;9.27;;
10851;SDS011;5479;52.046;6.314;2023-08-06T08:28:39;11.40;;;8.50;;
10851;SDS011;5479;52.046;6.314;2023-08-06T08:31:08;9.90;;;8.68;;
10851;SDS011;5479;52.046;6.314;2023-08-06T08:33:43;10.73;;;8.80;;
10851;SDS011;5479;52.046;6.314;2023-08-06T08:36:11;9.38;;;8.38;;
10851;SDS011;5479;52.046;6.314;2023-08-06T08:38:39;9.48;;;8.43;;
10851;SDS011;5479;52.046;6.314;2023-08-06T08:41:10;10.75;;;9.25;;
10851;SDS011;5479;52.046;6.314;2023-08-06T08:43:39;10.75;;;9.10;;
10851;SDS011;5479;52.046;6.314;2023-08-06T08:46:10;9.70;;;8.63;;
10851;SDS011;5479;52.046;6.314;2023-08-06T08:48:40;10.13;;;8.60;;
10851;SDS011;5479;52.046;6.314;2023-08-06T08:51:08;9.13;;;7.70;;
10851;SDS011;5479;52.046;6.314;2023-08-06T08:53:38;9.90;;;7.68;;
10851;SDS011;5479;52.046;6.314;2023-08-06T08:56:11;10.00;;;8.88;;
10851;SDS011;5479;52.046;6.314;2023-08-06T08:58:42;9.57;;;8.13;;
10851;SDS011;5479;52.046;6.314;2023-08-06T09:01:13;11.55;;;8.23;;
10851;SDS011;5479;52.046;6.314;2023-08-06T09:03:42;10.48;;;7.88;;
10851;SDS011;5479;52.046;6.314;2023-08-06T09:06:11;7.97;;;7.13;;
10851;SDS011;5479;52.046;6.314;2023-08-06T09:08:41;8.57;;;7.35;;
10851;SDS011;5479;52.046;6.314;2023-08-06T09:11:27;10.27;;;7.82;;
10851;SDS011;5479;52.046;6.314;2023-08-06T09:13:57;7.97;;;6.13;;
10851;SDS011;5479;52.046;6.314;2023-08-06T09:16:28;10.10;;;6.35;;
10851;SDS011;5479;52.046;6.314;2023-08-06T09:18:58;8.70;;;6.35;;
10851;SDS011;5479;52.046;6.314;2023-08-06T09:21:36;7.20;;;5.80;;
10851;SDS011;5479;52.046;6.314;2023-08-06T09:24:08;9.52;;;6.97;;
10851;SDS011;5479;52.046;6.314;2023-08-06T09:26:38;9.23;;;7.10;;
10851;SDS011;5479;52.046;6.314;2023-08-06T09:29:07;7.55;;;6.72;;
10851;SDS011;5479;52.046;6.314;2023-08-06T09:31:41;7.53;;;6.15;;
10851;SDS011;5479;52.046;6.314;2023-08-06T09:34:15;7.70;;;6.55;;
10851;SDS011;5479;52.046;6.314;2023-08-06T09:36:46;7.90;;;5.93;;
10851;SDS011;5479;52.046;6.314;2023-08-06T09:39:15;8.05;;;6.20;;
10851;SDS011;5479;52.046;6.314;2023-08-06T09:41:46;6.68;;;5.93;;
10851;SDS011;5479;52.046;6.314;2023-08-06T09:44:15;8.40;;;6.50;;
10851;SDS011;5479;52.046;6.314;2023-08-06T09:46:47;8.38;;;7.38;;
10851;SDS011;5479;52.046;6.314;2023-08-06T09:49:15;10.13;;;8.05;;
10851;SDS011;5479;52.046;6.314;2023-08-06T09:51:43;8.93;;;7.57;;
10851;SDS011;5479;52.046;6.314;2023-08-06T09:54:12;16.27;;;9.07;;
10851;SDS011;5479;52.046;6.314;2023-08-06T09:56:42;10.50;;;8.93;;
10851;SDS011;5479;52.046;6.314;2023-08-06T09:59:12;10.18;;;9.15;;
10851;SDS011;5479;52.046;6.314;2023-08-06T10:01:42;10.48;;;9.38;;
10851;SDS011;5479;52.046;6.314;2023-08-06T10:04:10;10.30;;;9.25;;
10851;SDS011;5479;52.046;6.314;2023-08-06T10:06:46;9.35;;;8.45;;
10851;SDS011;5479;52.046;6.314;2023-08-06T10:09:15;10.75;;;9.65;;
10851;SDS011;5479;52.046;6.314;2023-08-06T10:11:44;11.55;;;10.45;;
10851;SDS011;5479;52.046;6.314;2023-08-06T10:14:20;11.10;;;9.75;;
10851;SDS011;5479;52.046;6.314;2023-08-06T10:16:55;10.88;;;9.88;;
10851;SDS011;5479;52.046;6.314;2023-08-06T10:19:25;11.40;;;10.30;;
10851;SDS011;5479;52.046;6.314;2023-08-06T10:22:10;12.80;;;11.60;;
10851;SDS011;5479;52.046;6.314;2023-08-06T10:24:46;12.25;;;10.95;;
10851;SDS011;5479;52.046;6.314;2023-08-06T10:27:19;13.15;;;11.75;;
10851;SDS011;5479;52.046;6.314;2023-08-06T10:29:49;12.25;;;11.05;;
10851;SDS011;5479;52.046;6.314;2023-08-06T10:32:17;13.30;;;12.05;;
10851;SDS011;5479;52.046;6.314;2023-08-06T10:34:53;12.88;;;11.68;;
10851;SDS011;5479;52.046;6.314;2023-08-06T10:37:34;13.52;;;12.15;;
10851;SDS011;5479;52.046;6.314;2023-08-06T10:40:03;12.38;;;11.25;;
10851;SDS011;5479;52.046;6.314;2023-08-06T10:42:33;12.68;;;11.38;;
10851;SDS011;5479;52.046;6.314;2023-08-06T10:45:12;12.50;;;11.27;;
10851;SDS011;5479;52.046;6.314;2023-08-06T10:47:42;10.10;;;9.20;;
10851;SDS011;5479;52.046;6.314;2023-08-06T10:50:11;9.18;;;8.27;;
10851;SDS011;5479;52.046;6.314;2023-08-06T10:52:43;9.75;;;8.85;;
10851;SDS011;5479;52.046;6.314;2023-08-06T10:55:11;9.70;;;7.65;;
10851;SDS011;5479;52.046;6.314;2023-08-06T10:57:39;8.80;;;7.90;;
10851;SDS011;5479;52.046;6.314;2023-08-06T11:00:07;7.90;;;7.10;;
10851;SDS011;5479;52.046;6.314;2023-08-06T11:02:40;8.00;;;7.13;;
10851;SDS011;5479;52.046;6.314;2023-08-06T11:05:10;7.60;;;6.28;;
10851;SDS011;5479;52.046;6.314;2023-08-06T11:07:38;7.15;;;6.00;;
10851;SDS011;5479;52.046;6.314;2023-08-06T11:10:07;5.50;;;4.90;;
10851;SDS011;5479;52.046;6.314;2023-08-06T11:12:36;5.32;;;4.10;;
10851;SDS011;5479;52.046;6.314;2023-08-06T11:15:04;6.30;;;5.00;;
10851;SDS011;5479;52.046;6.314;2023-08-06T11:17:33;4.90;;;3.80;;
10851;SDS011;5479;52.046;6.314;2023-08-06T11:20:04;5.25;;;3.90;;
10851;SDS011;5479;52.046;6.314;2023-08-06T11:22:33;6.53;;;5.82;;
10851;SDS011;5479;52.046;6.314;2023-08-06T11:25:01;8.70;;;6.20;;
10851;SDS011;5479;52.046;6.314;2023-08-06T11:27:29;6.40;;;5.70;;
10851;SDS011;5479;52.046;6.314;2023-08-06T11:29:56;6.18;;;5.57;;
10851;SDS011;5479;52.046;6.314;2023-08-06T11:32:24;7.13;;;6.00;;
10851;SDS011;5479;52.046;6.314;2023-08-06T11:34:53;6.90;;;6.20;;
10851;SDS011;5479;52.046;6.314;2023-08-06T11:37:23;7.40;;;6.50;;
10851;SDS011;5479;52.046;6.314;2023-08-06T11:39:52;5.97;;;5.13;;
10851;SDS011;5479;52.046;6.314;2023-08-06T11:42:20;6.70;;;5.38;;
10851;SDS011;5479;52.046;6.314;2023-08-06T11:44:50;6.53;;;5.40;;
10851;SDS011;5479;52.046;6.314;2023-08-06T11:47:18;5.68;;;4.72;;
10851;SDS011;5479;52.046;6.314;2023-08-06T11:49:47;6.18;;;5.20;;
10851;SDS011;5479;52.046;6.314;2023-08-06T11:52:17;8.75;;;7.40;;
10851;SDS011;5479;52.046;6.314;2023-08-06T11:54:59;8.07;;;6.40;;
10851;SDS011;5479;52.046;6.314;2023-08-06T11:57:29;8.05;;;6.10;;
10851;SDS011;5479;52.046;6.314;2023-08-06T12:00:01;5.90;;;5.15;;
10851;SDS011;5479;52.046;6.314;2023-08-06T12:02:31;11.43;;;10.05;;
10851;SDS011;5479;52.046;6.314;2023-08-06T12:05:04;16.00;;;14.35;;
10851;SDS011;5479;52.046;6.314;2023-08-06T12:07:33;9.65;;;8.02;;
10851;SDS011;5479;52.046;6.314;2023-08-06T12:10:07;5.25;;;3.60;;
10851;SDS011;5479;52.046;6.314;2023-08-06T12:12:35;4.25;;;2.58;;
10851;SDS011;5479;52.046;6.314;2023-08-06T12:15:05;4.20;;;2.20;;
10851;SDS011;5479;52.046;6.314;2023-08-06T12:17:32;3.95;;;2.45;;
10851;SDS011;5479;52.046;6.314;2023-08-06T12:20:01;2.90;;;2.00;;
10851;SDS011;5479;52.046;6.314;2023-08-06T12:22:30;2.37;;;1.90;;
10851;SDS011;5479;52.046;6.314;2023-08-06T12:25:01;2.47;;;1.60;;
10851;SDS011;5479;52.046;6.314;2023-08-06T12:27:31;3.97;;;2.10;;
10851;SDS011;5479;52.046;6.314;2023-08-06T12:29:59;2.60;;;1.70;;
10851;SDS011;5479;52.046;6.314;2023-08-06T12:32:27;2.37;;;1.50;;
10851;SDS011;5479;52.046;6.314;2023-08-06T12:34:55;1.40;;;1.30;;
10851;SDS011;5479;52.046;6.314;2023-08-06T12:37:23;3.93;;;1.80;;
10851;SDS011;5479;52.046;6.314;2023-08-06T12:39:55;3.03;;;1.63;;
10851;SDS011;5479;52.046;6.314;2023-08-06T12:42:23;3.27;;;1.83;;
10851;SDS011;5479;52.046;6.314;2023-08-06T12:44:52;3.03;;;1.93;;
10851;SDS011;5479;52.046;6.314;2023-08-06T12:47:20;3.07;;;2.10;;
10851;SDS011;5479;52.046;6.314;2023-08-06T12:49:49;3.60;;;2.20;;
10851;SDS011;5479;52.046;6.314;2023-08-06T12:52:17;2.93;;;2.03;;
10851;SDS011;5479;52.046;6.314;2023-08-06T12:54:46;3.37;;;2.20;;
10851;SDS011;5479;52.046;6.314;2023-08-06T12:57:14;2.93;;;1.90;;
10851;SDS011;5479;52.046;6.314;2023-08-06T12:59:41;1.97;;;1.70;;
10851;SDS011;5479;52.046;6.314;2023-08-06T13:02:13;3.10;;;1.90;;
10851;SDS011;5479;52.046;6.314;2023-08-06T13:04:41;4.43;;;2.20;;
10851;SDS011;5479;52.046;6.314;2023-08-06T13:07:09;2.73;;;2.00;;
10851;SDS011;5479;52.046;6.314;2023-08-06T13:09:37;3.23;;;1.80;;
10851;SDS011;5479;52.046;6.314;2023-08-06T13:12:05;3.87;;;2.17;;
10851;SDS011;5479;52.046;6.314;2023-08-06T13:14:33;4.40;;;2.30;;
10851;SDS011;5479;52.046;6.314;2023-08-06T13:17:01;3.50;;;2.40;;
10851;SDS011;5479;52.046;6.314;2023-08-06T13:19:34;3.33;;;2.20;;
10851;SDS011;5479;52.046;6.314;2023-08-06T13:22:02;3.70;;;2.33;;
10851;SDS011;5479;52.046;6.314;2023-08-06T13:24:33;4.80;;;2.80;;
10851;SDS011;5479;52.046;6.314;2023-08-06T13:27:01;4.03;;;2.60;;
10851;SDS011;5479;52.046;6.314;2023-08-06T13:29:29;4.50;;;2.83;;
10851;SDS011;5479;52.046;6.314;2023-08-06T13:31:57;5.37;;;2.93;;
10851;SDS011;5479;52.046;6.314;2023-08-06T13:34:25;5.83;;;3.23;;
10851;SDS011;5479;52.046;6.314;2023-08-06T13:36:54;5.60;;;3.07;;
10851;SDS011;5479;52.046;6.314;2023-08-06T13:39:22;6.00;;;3.20;;
10851;SDS011;5479;52.046;6.314;2023-08-06T13:41:50;5.60;;;3.33;;
10851;SDS011;5479;52.046;6.314;2023-08-06T13:44:18;7.20;;;3.43;;
10851;SDS011;5479;52.046;6.314;2023-08-06T13:46:46;5.73;;;3.50;;
10851;SDS011;5479;52.046;6.314;2023-08-06T13:49:14;7.93;;;3.97;;
10851;SDS011;5479;52.046;6.314;2023-08-06T13:51:43;6.57;;;3.80;;
10851;SDS011;5479;52.046;6.314;2023-08-06T13:54:13;7.10;;;4.17;;
10851;SDS011;5479;52.046;6.314;2023-08-06T13:56:40;6.37;;;4.50;;
10851;SDS011;5479;52.046;6.314;2023-08-06T13:59:08;6.83;;;4.73;;
10851;SDS011;5479;52.046;6.314;2023-08-06T14:01:39;8.23;;;5.17;;
10851;SDS011;5479;52.046;6.314;2023-08-06T14:04:08;8.10;;;4.70;;
10851;SDS011;5479;52.046;6.314;2023-08-06T14:06:36;7.07;;;5.17;;
10851;SDS011;5479;52.046;6.314;2023-08-06T14:09:04;9.50;;;5.40;;
10851;SDS011;5479;52.046;6.314;2023-08-06T14:11:33;6.90;;;5.10;;
10851;SDS011;5479;52.046;6.314;2023-08-06T14:14:01;8.13;;;5.17;;
10851;SDS011;5479;52.046;6.314;2023-08-06T14:16:30;7.60;;;5.53;;
10851;SDS011;5479;52.046;6.314;2023-08-06T14:18:58;8.17;;;5.63;;
10851;SDS011;5479;52.046;6.314;2023-08-06T14:21:27;9.87;;;5.80;;
10851;SDS011;5479;52.046;6.314;2023-08-06T14:23:55;8.70;;;6.30;;
10851;SDS011;5479;52.046;6.314;2023-08-06T14:26:22;8.67;;;6.20;;
10851;SDS011;5479;52.046;6.314;2023-08-06T14:28:52;8.20;;;5.77;;
10851;SDS011;5479;52.046;6.314;2023-08-06T14:31:21;8.70;;;6.30;;
10851;SDS011;5479;52.046;6.314;2023-08-06T14:33:49;11.27;;;7.23;;
10851;SDS011;5479;52.046;6.314;2023-08-06T14:36:17;10.00;;;7.10;;
10851;SDS011;5479;52.046;6.314;2023-08-06T14:38:44;9.00;;;6.23;;
10851;SDS011;5479;52.046;6.314;2023-08-06T14:41:12;8.40;;;6.67;;
10851;SDS011;5479;52.046;6.314;2023-08-06T14:43:40;10.80;;;6.73;;
10851;SDS011;5479;52.046;6.314;2023-08-06T14:46:11;9.43;;;6.87;;
10851;SDS011;5479;52.046;6.314;2023-08-06T14:48:39;10.10;;;6.90;;
10851;SDS011;5479;52.046;6.314;2023-08-06T14:51:08;9.67;;;7.07;;
10851;SDS011;5479;52.046;6.314;2023-08-06T14:53:36;10.60;;;7.50;;
10851;SDS011;5479;52.046;6.314;2023-08-06T14:56:04;9.63;;;7.20;;
10851;SDS011;5479;52.046;6.314;2023-08-06T14:58:33;9.03;;;6.93;;
10851;SDS011;5479;52.046;6.314;2023-08-06T15:01:01;10.43;;;7.30;;